This is the latest recevied weather packets stored in our database for station/object KF6ILA. If no packets are shown the sender has not sent any weather packets the latest 1 day(s).
| Time | Temp. | Humidity | Pressure | Rain* | Wind** | Luminosity | Snow |
|---|---|---|---|---|---|---|---|
| 1778081817 | 12.22° C | 68% | 1015.4 hPa | 0 mm | - | 531 W/m² | - |
| 1778080035 | 11.11° C | 73% | 1015.4 hPa | 0 mm | - | 422 W/m² | - |
| 1778076768 | 7.78° C | 86% | 1015 hPa | 0 mm | - | 190 W/m² | - |
| 1778075877 | 6.67° C | 89% | 1014.9 hPa | 0 mm | - | 135 W/m² | - |
| 1778073204 | 5.56° C | 93% | 1014.4 hPa | 0 mm | - | 14 W/m² | - |
| 1778072907 | 5.56° C | 92% | 1014.4 hPa | 0 mm | - | 12 W/m² | - |
| 1778071422 | 5.56° C | 93% | 1014 hPa | 0 mm | - | 0 W/m² | - |
| 1778064920 | 5° C | 97% | 1013.5 hPa | 0 mm | - | 0 W/m² | - |
| 1778063700 | 5° C | 97% | 1013.6 hPa | 0 mm | - | 0 W/m² | - |
| 1778062250 | 5° C | 97% | 1013.5 hPa | 0 mm | - | 0 W/m² | - |
| 1778061918 | 5° C | 98% | 1013.5 hPa | 0 mm | - | 0 W/m² | - |
| 1778061028 | 5° C | 98% | 1013.4 hPa | 0 mm | - | 0 W/m² | - |
| 1778060433 | 4.44° C | 98% | 1013.5 hPa | 0 mm | - | 0 W/m² | - |
| 1778060136 | 4.44° C | 98% | 1013.5 hPa | 0 mm | - | 0 W/m² | - |
| 1778059871 | 4.44° C | 98% | 1013.5 hPa | 0 mm | - | 0 W/m² | - |
| 1778059245 | 4.44° C | 98% | 1013.4 hPa | 0 mm | - | 0 W/m² | - |
| 1778058115 | 4.44° C | 98% | 1013.6 hPa | 0 mm | - | 0 W/m² | - |
| 1778058058 | 4.44° C | 98% | 1013.6 hPa | 0 mm | - | 0 W/m² | - |
| 1778056275 | 4.44° C | 98% | 1013.9 hPa | 0 mm | - | 0 W/m² | - |
| 1778055681 | 3.89° C | 98% | 1013.8 hPa | 0 mm | - | 0 W/m² | - |
| 1778055384 | 3.89° C | 98% | 1013.9 hPa | 0 mm | - | 0 W/m² | - |
| 1778054237 | 3.89° C | 98% | 1014 hPa | 0 mm | - | 0 W/m² | - |
| 1778054196 | 3.89° C | 98% | 1014 hPa | 0 mm | - | 0 W/m² | - |
| 1778053899 | 3.89° C | 98% | 1014.2 hPa | 0 mm | - | 0 W/m² | - |
| 1778052744 | 3.89° C | 98% | 1014.1 hPa | 0 mm | - | 0 W/m² | - |
* Rain latest hour (hover to see other rain measurements)
** Current wind speed in m/s (hover to see current wind gust speed)